Time;durP1;ratioP1;P1;durP2;ratioP2;P2;SDS_P1;SDS_P2;PMS_P1;PMS_P2;Temp;Humidity;BMP_temperature;BMP_pressure;BME280_temperature;BME280_humidity;BME280_pressure;Samples;Min_cycle;Max_cycle;Signal;HPM_P1;HPM_P2
2023/04/21 00:02:26;;;;;;;11.60;8.40;;;;;;;;;;5090275;28;20571;-69
2023/04/21 00:04:57;;;;;;;19.00;8.63;;;;;;;;;;5090613;28;20856;-69
2023/04/21 00:07:30;;;;;;;13.13;8.37;;;;;;;;;;5093019;28;20441;-69
2023/04/21 00:10:01;;;;;;;14.20;8.50;;;;;;;;;;5093172;28;20887;-69
2023/04/21 00:12:30;;;;;;;17.50;7.47;;;;;;;;;;5102645;28;20753;-69
2023/04/21 00:14:59;;;;;;;11.80;7.47;;;;;;;;;;5103064;28;20474;-69
2023/04/21 00:17:28;;;;;;;10.63;7.67;;;;;;;;;;5098751;28;20561;-71
2023/04/21 00:20:05;;;;;;;10.73;7.90;;;;;;;;;;5089308;28;20448;-70
2023/04/21 00:22:37;;;;;;;13.13;7.80;;;;;;;;;;5084890;28;20914;-69
2023/04/21 00:25:08;;;;;;;14.33;8.10;;;;;;;;;;5087122;28;20703;-69
2023/04/21 00:27:45;;;;;;;12.83;7.90;;;;;;;;;;5085423;28;20455;-69
2023/04/21 00:30:16;;;;;;;10.17;8.10;;;;;;;;;;5083719;28;20447;-69
2023/04/21 00:32:46;;;;;;;17.03;8.60;;;;;;;;;;5090377;28;20515;-70
2023/04/21 00:35:14;;;;;;;16.60;7.77;;;;;;;;;;5090809;28;20437;-69
2023/04/21 00:37:48;;;;;;;11.77;8.17;;;;;;;;;;5089255;28;20530;-69
2023/04/21 00:40:17;;;;;;;11.73;7.10;;;;;;;;;;5089568;28;20683;-68
2023/04/21 00:42:53;;;;;;;13.13;8.33;;;;;;;;;;5089084;28;20792;-70
2023/04/21 00:45:28;;;;;;;17.47;8.40;;;;;;;;;;5088014;28;20437;-69
2023/04/21 00:48:00;;;;;;;12.90;7.47;;;;;;;;;;5079779;28;20944;-70
2023/04/21 00:50:28;;;;;;;10.00;7.57;;;;;;;;;;5079788;28;20475;-69
2023/04/21 00:52:59;;;;;;;9.73;7.77;;;;;;;;;;5079291;28;20445;-69
2023/04/21 00:55:28;;;;;;;18.63;8.00;;;;;;;;;;5079813;28;20523;-69
2023/04/21 00:57:59;;;;;;;12.53;8.30;;;;;;;;;;5082312;28;20444;-69
2023/04/21 01:00:38;;;;;;;11.77;8.10;;;;;;;;;;5087031;28;20452;-70
2023/04/21 01:03:08;;;;;;;13.00;8.20;;;;;;;;;;5091290;28;20863;-69
2023/04/21 01:05:37;;;;;;;14.80;8.17;;;;;;;;;;5087678;28;20761;-69
2023/04/21 01:08:16;;;;;;;13.43;8.07;;;;;;;;;;5086017;28;20906;-69
2023/04/21 01:10:49;;;;;;;13.20;8.07;;;;;;;;;;5091688;28;20460;-69
2023/04/21 01:13:22;;;;;;;10.60;8.30;;;;;;;;;;5099713;28;20467;-69
2023/04/21 01:15:50;;;;;;;16.03;8.07;;;;;;;;;;5099914;28;20547;-70
2023/04/21 01:18:19;;;;;;;14.83;8.63;;;;;;;;;;5099906;28;20456;-70
2023/04/21 01:20:48;;;;;;;11.90;8.27;;;;;;;;;;5096923;28;20784;-68
2023/04/21 01:23:19;;;;;;;13.97;9.07;;;;;;;;;;5099920;28;20827;-70
2023/04/21 01:25:48;;;;;;;15.20;9.57;;;;;;;;;;5100072;28;20444;-70
2023/04/21 01:28:16;;;;;;;14.53;8.70;;;;;;;;;;5098719;28;20859;-70
2023/04/21 01:30:45;;;;;;;14.50;9.03;;;;;;;;;;5098375;28;20448;-69
2023/04/21 01:33:14;;;;;;;12.67;8.00;;;;;;;;;;5097259;28;20464;-70
2023/04/21 01:35:42;;;;;;;12.30;9.13;;;;;;;;;;5096336;28;20809;-70
2023/04/21 01:38:11;;;;;;;16.93;8.13;;;;;;;;;;5096803;28;20464;-69
2023/04/21 01:40:41;;;;;;;13.50;7.97;;;;;;;;;;5096643;28;20532;-68
2023/04/21 01:43:10;;;;;;;10.30;7.17;;;;;;;;;;5096881;28;20560;-68
2023/04/21 01:45:39;;;;;;;14.77;8.63;;;;;;;;;;5096388;28;20456;-69
2023/04/21 01:48:07;;;;;;;14.67;8.80;;;;;;;;;;5096417;28;20486;-69
2023/04/21 01:50:36;;;;;;;14.50;8.27;;;;;;;;;;5096930;28;20532;-69
2023/04/21 01:53:04;;;;;;;14.70;9.40;;;;;;;;;;5099143;28;20459;-69
2023/04/21 01:55:33;;;;;;;14.20;8.90;;;;;;;;;;5098682;28;20462;-69
2023/04/21 01:58:03;;;;;;;12.70;8.63;;;;;;;;;;5097351;28;20473;-69
2023/04/21 02:00:32;;;;;;;13.93;8.90;;;;;;;;;;5097105;28;20459;-70
2023/04/21 02:03:01;;;;;;;13.43;7.77;;;;;;;;;;5097248;28;20537;-70
2023/04/21 02:05:30;;;;;;;13.30;9.50;;;;;;;;;;5097725;28;20458;-70
2023/04/21 02:07:59;;;;;;;12.03;8.20;;;;;;;;;;5098097;28;20444;-70
2023/04/21 02:10:27;;;;;;;10.60;7.50;;;;;;;;;;5098217;28;20535;-69
2023/04/21 02:12:56;;;;;;;16.00;8.50;;;;;;;;;;5099504;28;20967;-69
2023/04/21 02:15:28;;;;;;;13.73;8.53;;;;;;;;;;5099263;28;20452;-69
2023/04/21 02:18:02;;;;;;;11.00;8.30;;;;;;;;;;5097858;28;20463;-68
2023/04/21 02:20:31;;;;;;;13.37;7.60;;;;;;;;;;5100441;28;20862;-68
2023/04/21 02:22:59;;;;;;;15.90;9.20;;;;;;;;;;5097340;28;20504;-70
2023/04/21 02:25:31;;;;;;;12.30;8.47;;;;;;;;;;5098597;28;20450;-69
2023/04/21 02:28:05;;;;;;;16.33;8.00;;;;;;;;;;5097694;28;20438;-70
2023/04/21 02:30:36;;;;;;;14.47;8.43;;;;;;;;;;5096985;28;20459;-69
2023/04/21 02:33:04;;;;;;;11.87;7.00;;;;;;;;;;5097558;28;20630;-69
2023/04/21 02:35:33;;;;;;;11.87;7.20;;;;;;;;;;5095655;28;20795;-68
2023/04/21 02:38:06;;;;;;;15.80;9.30;;;;;;;;;;5096910;28;20462;-69
2023/04/21 02:40:34;;;;;;;14.23;7.60;;;;;;;;;;5097304;28;20464;-68
2023/04/21 02:43:03;;;;;;;14.57;7.73;;;;;;;;;;5098393;28;20527;-70
2023/04/21 02:45:32;;;;;;;13.97;8.87;;;;;;;;;;5098961;28;20450;-69
2023/04/21 02:48:25;;;;;;;15.70;8.00;;;;;;;;;;5099678;28;20797;-69
2023/04/21 02:51:05;;;;;;;14.87;8.50;;;;;;;;;;5097831;28;20924;-68
2023/04/21 02:53:33;;;;;;;17.77;9.17;;;;;;;;;;5098350;28;20859;-70
2023/04/21 02:56:03;;;;;;;12.20;7.53;;;;;;;;;;5098481;28;20467;-69
2023/04/21 02:58:31;;;;;;;12.10;8.53;;;;;;;;;;5098645;28;20444;-69
2023/04/21 03:01:00;;;;;;;15.23;7.73;;;;;;;;;;5098346;28;20456;-70
2023/04/21 03:03:28;;;;;;;14.67;9.90;;;;;;;;;;5100555;28;20579;-68
2023/04/21 03:06:01;;;;;;;12.00;8.33;;;;;;;;;;5099112;28;20932;-70
2023/04/21 03:08:30;;;;;;;19.40;8.43;;;;;;;;;;5099866;28;20444;-69
2023/04/21 03:11:03;;;;;;;15.27;8.77;;;;;;;;;;5100457;28;20460;-69
2023/04/21 03:13:32;;;;;;;18.57;8.73;;;;;;;;;;5099973;28;20479;-70
2023/04/21 03:16:00;;;;;;;14.70;9.70;;;;;;;;;;5098519;28;20448;-71
2023/04/21 03:18:29;;;;;;;17.83;11.00;;;;;;;;;;5095709;28;21018;-71
2023/04/21 03:21:02;;;;;;;16.73;9.33;;;;;;;;;;5098305;28;20455;-69
2023/04/21 03:23:31;;;;;;;20.23;10.33;;;;;;;;;;5097598;28;20484;-71
2023/04/21 03:28:47;;;;;;;14.93;7.70;;;;;;;;;;5075351;28;20742;-71
2023/04/21 03:31:16;;;;;;;20.37;9.90;;;;;;;;;;5077241;28;20445;-69
2023/04/21 03:33:45;;;;;;;11.43;8.20;;;;;;;;;;5079305;28;20445;-70
2023/04/21 03:36:15;;;;;;;13.77;8.50;;;;;;;;;;5081149;28;20445;-69
2023/04/21 03:38:43;;;;;;;13.40;8.07;;;;;;;;;;5078447;28;20453;-71
2023/04/21 03:41:12;;;;;;;18.50;9.70;;;;;;;;;;5078920;28;20848;-70
2023/04/21 03:43:40;;;;;;;15.33;9.70;;;;;;;;;;5081750;28;20488;-69
2023/04/21 03:46:11;;;;;;;24.17;10.20;;;;;;;;;;5079795;28;20483;-69
2023/04/21 03:48:40;;;;;;;20.63;11.83;;;;;;;;;;5078769;28;20472;-69
2023/04/21 03:51:09;;;;;;;15.50;9.30;;;;;;;;;;5078529;28;20445;-68
2023/04/21 03:53:38;;;;;;;17.37;10.10;;;;;;;;;;5078468;28;20449;-69
2023/04/21 03:56:07;;;;;;;23.13;10.83;;;;;;;;;;5077628;28;20449;-69
2023/04/21 03:58:36;;;;;;;16.50;9.80;;;;;;;;;;5078378;28;20559;-68
2023/04/21 04:01:06;;;;;;;16.33;7.87;;;;;;;;;;5077577;28;20456;-69
2023/04/21 04:03:35;;;;;;;11.70;8.87;;;;;;;;;;5078592;28;20758;-70
2023/04/21 04:06:03;;;;;;;13.20;8.53;;;;;;;;;;5078098;28;20467;-68
2023/04/21 04:08:32;;;;;;;14.23;8.57;;;;;;;;;;5078640;28;20896;-69
2023/04/21 04:11:02;;;;;;;16.20;9.57;;;;;;;;;;5078047;28;20472;-68
2023/04/21 04:13:31;;;;;;;15.50;9.30;;;;;;;;;;5078630;28;20996;-70
2023/04/21 04:16:00;;;;;;;22.90;9.50;;;;;;;;;;5079008;28;20967;-69
2023/04/21 04:18:28;;;;;;;12.50;8.63;;;;;;;;;;5077962;28;20465;-69
2023/04/21 04:20:58;;;;;;;13.97;9.37;;;;;;;;;;5077624;28;20930;-69
2023/04/21 04:23:27;;;;;;;14.03;9.40;;;;;;;;;;5079031;28;21048;-69
2023/04/21 04:25:56;;;;;;;13.00;8.20;;;;;;;;;;5076366;28;20748;-68
2023/04/21 04:28:26;;;;;;;14.47;9.77;;;;;;;;;;5099180;28;20470;-69
2023/04/21 04:30:59;;;;;;;11.30;8.80;;;;;;;;;;5082411;28;20514;-71
2023/04/21 04:33:30;;;;;;;18.23;8.80;;;;;;;;;;5078615;28;20465;-69
2023/04/21 04:35:59;;;;;;;12.63;9.10;;;;;;;;;;5077147;28;20441;-71
2023/04/21 04:38:30;;;;;;;18.83;10.07;;;;;;;;;;5076902;28;20461;-70
2023/04/21 04:41:03;;;;;;;15.10;10.47;;;;;;;;;;5077470;28;20452;-70
2023/04/21 04:43:35;;;;;;;16.00;9.60;;;;;;;;;;5077473;28;22383;-70
2023/04/21 04:46:04;;;;;;;10.87;8.43;;;;;;;;;;5078251;28;20825;-69
2023/04/21 04:48:33;;;;;;;15.60;9.80;;;;;;;;;;5091122;28;20520;-71
2023/04/21 04:51:02;;;;;;;14.87;9.83;;;;;;;;;;5095320;28;20444;-70
2023/04/21 04:53:30;;;;;;;13.03;9.60;;;;;;;;;;5096576;28;20452;-69
2023/04/21 04:56:00;;;;;;;16.40;10.03;;;;;;;;;;5096732;28;20517;-69
2023/04/21 04:58:29;;;;;;;18.50;10.40;;;;;;;;;;5093823;28;20466;-69
2023/04/21 05:01:14;;;;;;;21.17;10.37;;;;;;;;;;5087694;28;20457;-70
2023/04/21 05:03:44;;;;;;;16.37;9.40;;;;;;;;;;5085435;28;20475;-68
2023/04/21 05:06:14;;;;;;;14.50;10.13;;;;;;;;;;5079925;28;20934;-70
2023/04/21 05:08:44;;;;;;;19.40;10.77;;;;;;;;;;5082885;28;20480;-69
2023/04/21 05:11:13;;;;;;;13.60;10.40;;;;;;;;;;5086905;28;20904;-70
2023/04/21 05:13:42;;;;;;;12.77;9.10;;;;;;;;;;5091373;28;20446;-69
2023/04/21 05:16:11;;;;;;;25.47;9.93;;;;;;;;;;5095621;28;20450;-70
2023/04/21 05:18:42;;;;;;;16.13;9.30;;;;;;;;;;5082315;28;20457;-69
2023/04/21 05:21:14;;;;;;;16.30;9.40;;;;;;;;;;5092236;28;20444;-69
2023/04/21 05:23:44;;;;;;;14.87;9.00;;;;;;;;;;5094689;28;21155;-68
2023/04/21 05:26:26;;;;;;;12.70;8.20;;;;;;;;;;5095536;28;20448;-68
2023/04/21 05:28:55;;;;;;;12.60;8.00;;;;;;;;;;5094030;28;20466;-70
2023/04/21 05:31:24;;;;;;;14.57;8.37;;;;;;;;;;5093080;28;20448;-69
2023/04/21 05:33:54;;;;;;;9.30;8.00;;;;;;;;;;5092628;28;20444;-70
2023/04/21 05:36:24;;;;;;;14.30;8.17;;;;;;;;;;5091759;28;20976;-70
2023/04/21 05:38:53;;;;;;;15.13;8.43;;;;;;;;;;5092427;28;20505;-69
2023/04/21 05:41:22;;;;;;;15.30;9.60;;;;;;;;;;5090558;28;20445;-70
2023/04/21 05:43:51;;;;;;;14.87;8.40;;;;;;;;;;5089821;28;20972;-69
2023/04/21 05:46:20;;;;;;;13.50;8.90;;;;;;;;;;5090215;28;20460;-69
2023/04/21 05:49:01;;;;;;;22.33;9.40;;;;;;;;;;5092187;28;20444;-71
2023/04/21 05:51:30;;;;;;;11.70;9.80;;;;;;;;;;5090321;28;20444;-70
2023/04/21 05:53:59;;;;;;;12.27;8.50;;;;;;;;;;5089606;28;20531;-69
2023/04/21 05:56:32;;;;;;;15.60;10.10;;;;;;;;;;5078589;28;20544;-69
2023/04/21 05:59:00;;;;;;;14.40;8.57;;;;;;;;;;5075730;28;20452;-69
2023/04/21 06:01:35;;;;;;;14.20;7.87;;;;;;;;;;5091215;28;20492;-70
2023/04/21 06:04:06;;;;;;;14.60;9.37;;;;;;;;;;5085213;28;21159;-68
2023/04/21 06:06:34;;;;;;;14.90;9.10;;;;;;;;;;5070712;28;21145;-70
2023/04/21 06:09:04;;;;;;;9.90;7.90;;;;;;;;;;5070753;28;20449;-69
2023/04/21 06:11:34;;;;;;;22.10;16.10;;;;;;;;;;5071641;28;20457;-70
2023/04/21 06:14:16;;;;;;;13.40;8.53;;;;;;;;;;5072152;28;20540;-70
2023/04/21 06:16:48;;;;;;;27.50;16.27;;;;;;;;;;5072763;28;21039;-69
2023/04/21 06:19:19;;;;;;;12.10;8.43;;;;;;;;;;5070514;28;20457;-70
2023/04/21 06:21:48;;;;;;;15.10;9.33;;;;;;;;;;5072174;28;20487;-70
2023/04/21 06:24:23;;;;;;;13.30;8.27;;;;;;;;;;5073338;28;20477;-69
2023/04/21 06:27:15;;;;;;;14.67;9.97;;;;;;;;;;5075216;28;20452;-70
2023/04/21 06:30:08;;;;;;;10.80;8.07;;;;;;;;;;5076595;28;20800;-71
2023/04/21 06:32:39;;;;;;;13.43;8.10;;;;;;;;;;5069124;28;20453;-70
2023/04/21 06:35:13;;;;;;;12.60;8.47;;;;;;;;;;5072326;28;20448;-71
2023/04/21 06:37:58;;;;;;;14.53;9.10;;;;;;;;;;5073608;28;20532;-70
2023/04/21 06:40:28;;;;;;;15.50;8.77;;;;;;;;;;5074608;28;20465;-71
2023/04/21 06:42:57;;;;;;;15.60;9.23;;;;;;;;;;5076042;28;20767;-71
2023/04/21 06:45:35;;;;;;;9.10;7.87;;;;;;;;;;5086025;28;20452;-70
2023/04/21 06:50:50;;;;;;;11.27;9.03;;;;;;;;;;5076990;28;20445;-70
2023/04/21 06:53:20;;;;;;;13.93;8.50;;;;;;;;;;5075669;28;20864;-69
2023/04/21 06:55:51;;;;;;;12.77;9.00;;;;;;;;;;5075589;28;20938;-71
2023/04/21 06:58:26;;;;;;;14.83;8.70;;;;;;;;;;5082808;28;20814;-71
2023/04/21 07:00:55;;;;;;;11.87;8.67;;;;;;;;;;5092705;28;20440;-71
2023/04/21 07:03:24;;;;;;;11.00;8.27;;;;;;;;;;5096863;28;20493;-70
2023/04/21 07:05:57;;;;;;;12.00;8.27;;;;;;;;;;5093368;28;20435;-69
2023/04/21 07:08:28;;;;;;;13.00;7.57;;;;;;;;;;5086441;28;20530;-69
2023/04/21 07:11:06;;;;;;;11.40;7.30;;;;;;;;;;5079284;28;20464;-72
2023/04/21 07:13:37;;;;;;;13.33;8.10;;;;;;;;;;5076805;28;20942;-69
2023/04/21 07:16:07;;;;;;;12.73;8.67;;;;;;;;;;5093298;28;20901;-71
2023/04/21 07:18:39;;;;;;;10.60;7.60;;;;;;;;;;5085833;28;20558;-68
2023/04/21 07:21:27;;;;;;;11.70;8.23;;;;;;;;;;4919037;27;6235441;-71
2023/04/21 07:23:56;;;;;;;12.70;7.93;;;;;;;;;;5112710;28;20505;-70
2023/04/21 07:29:27;;;;;;;16.30;8.60;;;;;;;;;;5111019;28;20463;-69
2023/04/21 07:32:16;;;;;;;22.30;14.77;;;;;;;;;;5111644;28;20470;-70
2023/04/21 07:34:49;;;;;;;13.90;8.43;;;;;;;;;;5113591;28;20442;-71
2023/04/21 07:37:48;;;;;;;14.07;9.00;;;;;;;;;;5112757;28;20448;-70
2023/04/21 07:40:24;;;;;;;11.87;8.10;;;;;;;;;;5111320;28;20490;-70
2023/04/21 07:42:53;;;;;;;11.60;8.77;;;;;;;;;;5112242;28;20446;-70
2023/04/21 07:45:22;;;;;;;9.97;7.80;;;;;;;;;;5120244;28;20549;-70
2023/04/21 07:48:06;;;;;;;10.30;8.40;;;;;;;;;;5131662;28;20455;-70
2023/04/21 07:50:42;;;;;;;12.83;7.87;;;;;;;;;;5129891;28;20451;-70
2023/04/21 07:53:24;;;;;;;11.60;7.70;;;;;;;;;;5132031;28;20453;-69
2023/04/21 07:58:38;;;;;;;12.10;8.63;;;;;;;;;;5110180;28;20443;-71
2023/04/21 08:01:22;;;;;;;;;;;;;;;;;;;;;
2023/04/21 08:03:52;;;;;;;12.07;7.03;;;;;;;;;;5103983;28;20530;-71
2023/04/21 08:06:32;;;;;;;9.80;8.80;;;;;;;;;;5109536;28;20467;-70
2023/04/21 08:09:08;;;;;;;12.67;7.97;;;;;;;;;;5110807;28;20987;-70
2023/04/21 08:11:37;;;;;;;11.23;7.60;;;;;;;;;;5127896;28;20461;-69
2023/04/21 08:14:08;;;;;;;10.47;7.60;;;;;;;;;;5118165;28;20574;-70
2023/04/21 08:16:37;;;;;;;11.13;7.67;;;;;;;;;;5130547;28;20558;-69
2023/04/21 08:19:06;;;;;;;11.30;7.97;;;;;;;;;;5128625;28;20434;-70
2023/04/21 08:21:38;;;;;;;8.93;6.97;;;;;;;;;;5127147;28;20546;-70
2023/04/21 08:24:19;;;;;;;11.10;8.23;;;;;;;;;;5109870;28;20536;-71
2023/04/21 08:26:53;;;;;;;12.53;8.07;;;;;;;;;;5109305;28;20474;-71
2023/04/21 08:29:26;;;;;;;14.63;9.03;;;;;;;;;;5129296;28;20458;-70
2023/04/21 08:31:57;;;;;;;10.00;7.60;;;;;;;;;;5121073;28;20889;-70
2023/04/21 08:34:44;;;;;;;10.50;7.40;;;;;;;;;;5107647;28;20440;-71
2023/04/21 08:37:16;;;;;;;15.40;9.30;;;;;;;;;;5095449;28;20463;-69
2023/04/21 08:39:49;;;;;;;13.97;9.63;;;;;;;;;;5092758;28;20898;-70
2023/04/21 08:42:23;;;;;;;11.90;8.13;;;;;;;;;;5093046;28;20517;-71
2023/04/21 08:45:01;;;;;;;11.13;8.80;;;;;;;;;;5093301;28;20532;-70
2023/04/21 08:47:33;;;;;;;14.23;9.90;;;;;;;;;;5106632;28;20553;-70
2023/04/21 08:50:12;;;;;;;30.73;26.67;;;;;;;;;;5114870;28;20466;-71
2023/04/21 08:55:50;;;;;;;14.73;11.00;;;;;;;;;;5092481;28;20483;-71
2023/04/21 09:02:10;;;;;;;11.63;8.70;;;;;;;;;;5102697;28;20544;-71
2023/04/21 09:04:45;;;;;;;16.07;8.90;;;;;;;;;;5097334;28;21130;-70
2023/04/21 09:07:33;;;;;;;12.50;8.10;;;;;;;;;;5095423;28;20452;-71
2023/04/21 09:10:07;;;;;;;12.47;10.07;;;;;;;;;;5096308;28;20441;-71
2023/04/21 09:12:40;;;;;;;12.40;9.20;;;;;;;;;;5107049;28;20534;-71
2023/04/21 09:15:13;;;;;;;12.87;8.03;;;;;;;;;;5102710;28;20447;-71
2023/04/21 09:18:00;;;;;;;12.00;7.97;;;;;;;;;;5112224;28;20451;-71
2023/04/21 09:20:32;;;;;;;14.63;8.90;;;;;;;;;;5116328;28;20495;-71
2023/04/21 09:23:04;;;;;;;11.20;8.27;;;;;;;;;;5117214;28;21078;-71
2023/04/21 09:25:44;;;;;;;11.23;8.53;;;;;;;;;;5104983;28;20533;-71
2023/04/21 09:28:39;;;;;;;9.23;7.97;;;;;;;;;;5099136;28;20451;-70
2023/04/21 09:31:25;;;;;;;9.80;7.77;;;;;;;;;;5113236;28;20448;-70
2023/04/21 09:33:55;;;;;;;13.53;7.70;;;;;;;;;;5093897;28;20467;-71
2023/04/21 09:36:59;;;;;;;15.60;8.83;;;;;;;;;;5095200;28;20716;-71
2023/04/21 09:39:31;;;;;;;10.63;9.00;;;;;;;;;;5093820;28;20477;-69
2023/04/21 09:42:08;;;;;;;13.43;8.17;;;;;;;;;;5095004;28;20494;-69
2023/04/21 09:44:37;;;;;;;17.10;10.53;;;;;;;;;;5093220;28;20436;-70
2023/04/21 09:47:29;;;;;;;10.13;7.90;;;;;;;;;;5097410;28;20456;-70
2023/04/21 09:50:14;;;;;;;11.60;9.83;;;;;;;;;;5093157;28;21034;-71
2023/04/21 09:52:52;;;;;;;10.43;7.47;;;;;;;;;;5094881;28;20456;-71
2023/04/21 09:55:21;;;;;;;18.17;7.53;;;;;;;;;;5094542;28;20875;-71
2023/04/21 09:57:52;;;;;;;11.13;8.87;;;;;;;;;;5092442;28;20485;-71
2023/04/21 10:00:27;;;;;;;11.13;8.23;;;;;;;;;;5093520;28;20476;-71
2023/04/21 10:03:32;;;;;;;10.93;8.20;;;;;;;;;;5092867;28;20459;-71
2023/04/21 10:09:16;;;;;;;9.20;7.93;;;;;;;;;;5093438;28;20513;-72
2023/04/21 10:11:56;;;;;;;9.63;8.03;;;;;;;;;;5093796;28;20436;-73
2023/04/21 10:14:26;;;;;;;9.70;7.80;;;;;;;;;;5093311;28;20466;-72
2023/04/21 10:17:13;;;;;;;11.00;7.63;;;;;;;;;;5095772;28;20871;-72
2023/04/21 10:19:58;;;;;;;11.53;7.47;;;;;;;;;;5095184;28;20968;-72
2023/04/21 10:22:58;;;;;;;10.40;8.33;;;;;;;;;;5098348;28;20570;-72
2023/04/21 10:26:01;;;;;;;11.90;7.37;;;;;;;;;;5107937;28;21179;-72
2023/04/21 10:28:44;;;;;;;9.60;6.80;;;;;;;;;;5097184;28;20523;-72
2023/04/21 10:31:20;;;;;;;9.00;6.60;;;;;;;;;;5101743;28;20462;-70
2023/04/21 10:34:12;;;;;;;10.50;8.30;;;;;;;;;;5098339;28;20454;-72
2023/04/21 10:36:57;;;;;;;11.80;6.47;;;;;;;;;;5092166;28;20610;-71
2023/04/21 10:39:34;;;;;;;9.40;6.63;;;;;;;;;;5096900;28;20473;-71
2023/04/21 10:45:17;;;;;;;9.50;6.70;;;;;;;;;;5094817;28;20439;-71
2023/04/21 10:48:02;;;;;;;8.80;6.83;;;;;;;;;;5097326;28;20451;-71
2023/04/21 10:50:32;;;;;;;9.03;7.03;;;;;;;;;;5094348;28;20448;-72
2023/04/21 10:53:37;;;;;;;11.53;6.63;;;;;;;;;;5096631;28;20921;-73
2023/04/21 10:56:12;;;;;;;11.13;6.57;;;;;;;;;;5090901;28;20878;-72
2023/04/21 10:58:41;;;;;;;7.60;5.87;;;;;;;;;;5094886;28;20515;-72
2023/04/21 11:01:13;;;;;;;8.30;6.20;;;;;;;;;;5096091;28;20487;-73
2023/04/21 11:03:58;;;;;;;8.53;6.20;;;;;;;;;;5095298;28;20505;-71
2023/04/21 11:06:27;;;;;;;9.30;6.60;;;;;;;;;;5095756;28;20480;-72
2023/04/21 11:09:04;;;;;;;8.60;6.63;;;;;;;;;;5095461;28;20544;-72
2023/04/21 11:11:54;;;;;;;7.90;5.43;;;;;;;;;;5093778;28;20448;-72
2023/04/21 11:14:29;;;;;;;11.23;6.80;;;;;;;;;;5095889;28;20484;-71
2023/04/21 11:29:10;;;;;;;8.63;6.20;;;;;;;;;;5082076;28;21087;-73
2023/04/21 11:31:42;;;;;;;8.40;5.93;;;;;;;;;;5090114;28;20451;-72
2023/04/21 11:34:17;;;;;;;9.00;5.47;;;;;;;;;;5098828;28;20532;-72
2023/04/21 11:36:52;;;;;;;7.73;5.80;;;;;;;;;;5099130;28;20555;-73
2023/04/21 11:42:13;;;;;;;6.73;5.27;;;;;;;;;;5108995;28;20487;-73
2023/04/21 11:44:45;;;;;;;11.50;8.17;;;;;;;;;;5095920;28;20460;-72
2023/04/21 11:47:16;;;;;;;9.70;8.03;;;;;;;;;;5088788;28;21131;-73
2023/04/21 11:49:49;;;;;;;9.40;6.13;;;;;;;;;;5089157;28;20499;-71
2023/04/21 11:52:52;;;;;;;7.00;5.17;;;;;;;;;;5089357;28;20467;-71
2023/04/21 11:58:06;;;;;;;6.00;4.73;;;;;;;;;;5089713;28;20459;-72
2023/04/21 12:00:35;;;;;;;6.17;4.50;;;;;;;;;;5091917;28;20487;-71
2023/04/21 12:03:10;;;;;;;8.10;6.27;;;;;;;;;;5092659;28;20880;-75
2023/04/21 12:05:39;;;;;;;8.93;5.80;;;;;;;;;;5093637;28;20448;-71
2023/04/21 12:08:21;;;;;;;10.93;4.80;;;;;;;;;;5080852;28;20899;-72
2023/04/21 12:11:36;;;;;;;7.23;5.47;;;;;;;;;;5098634;28;20450;-71
2023/04/21 12:14:08;;;;;;;8.53;5.80;;;;;;;;;;5098500;28;20460;-72
2023/04/21 12:16:46;;;;;;;8.97;5.60;;;;;;;;;;5094006;28;20691;-71
2023/04/21 12:19:38;;;;;;;;;;;;;;;;;;;;;
2023/04/21 12:22:09;;;;;;;10.67;5.40;;;;;;;;;;5100710;28;20487;-71
2023/04/21 12:24:49;;;;;;;7.10;5.33;;;;;;;;;;5097255;28;20447;-72
2023/04/21 12:27:25;;;;;;;6.00;4.37;;;;;;;;;;5097985;28;21113;-70
2023/04/21 12:29:55;;;;;;;7.80;5.37;;;;;;;;;;5096087;28;20460;-71
2023/04/21 12:32:25;;;;;;;6.80;6.10;;;;;;;;;;5095705;28;20444;-71
2023/04/21 12:35:14;;;;;;;8.53;5.60;;;;;;;;;;5093960;28;20455;-72
2023/04/21 12:37:50;;;;;;;11.67;5.30;;;;;;;;;;5093137;28;20447;-71
2023/04/21 12:40:19;;;;;;;8.77;6.00;;;;;;;;;;5092512;28;20990;-73
2023/04/21 12:42:49;;;;;;;8.60;5.63;;;;;;;;;;5093895;28;20508;-70
2023/04/21 12:45:47;;;;;;;6.87;5.73;;;;;;;;;;5110837;28;20466;-73
2023/04/21 12:48:33;;;;;;;7.30;5.80;;;;;;;;;;5093760;28;20448;-71
2023/04/21 12:51:09;;;;;;;7.30;5.50;;;;;;;;;;5113869;28;20576;-71
2023/04/21 12:53:44;;;;;;;8.13;5.60;;;;;;;;;;5115781;28;20588;-71
2023/04/21 12:58:59;;;;;;;6.47;5.63;;;;;;;;;;5091862;28;20515;-72
2023/04/21 13:01:33;;;;;;;8.70;5.93;;;;;;;;;;5094450;28;20476;-71
2023/04/21 13:04:20;;;;;;;6.37;5.23;;;;;;;;;;5095495;28;20464;-71
2023/04/21 13:07:02;;;;;;;8.60;6.03;;;;;;;;;;5095240;28;20455;-72
2023/04/21 13:09:37;;;;;;;5.93;5.33;;;;;;;;;;5093731;28;20573;-71
2023/04/21 13:12:11;;;;;;;10.20;6.73;;;;;;;;;;5091220;28;20462;-73
2023/04/21 13:14:40;;;;;;;6.67;5.33;;;;;;;;;;5093993;28;20533;-72
2023/04/21 13:17:10;;;;;;;9.17;5.10;;;;;;;;;;5105207;28;20525;-71
2023/04/21 13:19:38;;;;;;;5.83;5.00;;;;;;;;;;5099230;28;20944;-71
2023/04/21 13:22:21;;;;;;;7.63;6.30;;;;;;;;;;5104705;28;20483;-70
2023/04/21 13:27:46;;;;;;;7.13;5.30;;;;;;;;;;5102752;28;20905;-71
2023/04/21 13:30:24;;;;;;;6.60;5.77;;;;;;;;;;5100242;28;20486;-71
2023/04/21 13:32:58;;;;;;;8.90;6.07;;;;;;;;;;5095421;28;20460;-70
2023/04/21 13:35:36;;;;;;;9.23;6.30;;;;;;;;;;5108045;28;20443;-70
2023/04/21 13:38:20;;;;;;;10.50;5.60;;;;;;;;;;5102836;28;20447;-72
2023/04/21 13:41:21;;;;;;;7.67;5.53;;;;;;;;;;5092812;28;20456;-72
2023/04/21 13:43:57;;;;;;;6.70;5.80;;;;;;;;;;5089558;28;20444;-71
2023/04/21 13:46:26;;;;;;;11.47;6.17;;;;;;;;;;5093093;28;20448;-72
2023/04/21 13:49:17;;;;;;;8.13;5.80;;;;;;;;;;5093325;28;20452;-73
2023/04/21 13:55:04;;;;;;;7.73;5.60;;;;;;;;;;5086576;28;20517;-72
2023/04/21 13:57:41;;;;;;;6.27;5.40;;;;;;;;;;5089787;28;20602;-73
2023/04/21 14:00:11;;;;;;;7.90;4.90;;;;;;;;;;5091213;28;20930;-72
2023/04/21 14:02:41;;;;;;;8.63;4.80;;;;;;;;;;5092761;28;20495;-72
2023/04/21 14:05:15;;;;;;;8.33;6.37;;;;;;;;;;5092204;28;20865;-73
2023/04/21 14:07:44;;;;;;;8.43;5.50;;;;;;;;;;5096999;28;20475;-72
2023/04/21 14:10:16;;;;;;;6.53;5.10;;;;;;;;;;5111607;28;20474;-72
2023/04/21 14:12:46;;;;;;;8.23;4.73;;;;;;;;;;5113079;28;20531;-73
2023/04/21 14:15:16;;;;;;;6.43;5.03;;;;;;;;;;5112071;28;20517;-70
2023/04/21 14:17:45;;;;;;;8.93;6.23;;;;;;;;;;5110087;28;20517;-70
2023/04/21 14:20:14;;;;;;;7.10;4.80;;;;;;;;;;5107397;28;20819;-70
2023/04/21 14:22:43;;;;;;;9.23;5.77;;;;;;;;;;5108895;28;20595;-70
2023/04/21 14:25:29;;;;;;;6.57;4.40;;;;;;;;;;5108358;28;20455;-72
2023/04/21 14:28:00;;;;;;;6.53;5.20;;;;;;;;;;5104815;28;20532;-70
2023/04/21 14:30:29;;;;;;;7.50;5.63;;;;;;;;;;5110323;28;20673;-73
2023/04/21 14:32:57;;;;;;;6.00;4.73;;;;;;;;;;5113154;28;20448;-70
2023/04/21 14:35:28;;;;;;;6.73;4.37;;;;;;;;;;5107362;28;20494;-71
2023/04/21 14:37:59;;;;;;;9.33;4.10;;;;;;;;;;5099566;28;20459;-71
2023/04/21 14:40:29;;;;;;;8.13;5.20;;;;;;;;;;5092935;28;20594;-70
2023/04/21 14:42:57;;;;;;;6.27;4.73;;;;;;;;;;5093448;28;20487;-69
2023/04/21 14:45:32;;;;;;;7.33;4.90;;;;;;;;;;5093704;28;20474;-69
2023/04/21 14:48:01;;;;;;;6.63;4.67;;;;;;;;;;5109653;28;20466;-71
2023/04/21 14:50:33;;;;;;;7.40;4.17;;;;;;;;;;5112105;28;20467;-71
2023/04/21 14:53:01;;;;;;;6.70;4.50;;;;;;;;;;5114999;28;21075;-71
2023/04/21 14:55:52;;;;;;;7.57;5.50;;;;;;;;;;5094605;28;20551;-71
2023/04/21 14:58:23;;;;;;;5.87;4.70;;;;;;;;;;5092045;28;20522;-71
2023/04/21 15:01:03;;;;;;;5.63;4.20;;;;;;;;;;5099507;28;20466;-71
2023/04/21 15:03:31;;;;;;;7.90;5.47;;;;;;;;;;5105640;28;21091;-71
2023/04/21 15:06:00;;;;;;;8.47;6.57;;;;;;;;;;5102593;28;20496;-70
2023/04/21 15:08:29;;;;;;;6.43;5.40;;;;;;;;;;5101337;28;20455;-71
2023/04/21 15:11:04;;;;;;;5.93;4.37;;;;;;;;;;5108324;28;20527;-71
2023/04/21 15:13:36;;;;;;;6.43;4.90;;;;;;;;;;5106150;28;20950;-70
2023/04/21 15:16:07;;;;;;;6.50;4.53;;;;;;;;;;5093742;28;20486;-70
2023/04/21 15:18:37;;;;;;;5.80;4.30;;;;;;;;;;5090984;28;20458;-71
2023/04/21 15:21:06;;;;;;;5.60;5.00;;;;;;;;;;5106499;28;20454;-71
2023/04/21 15:23:44;;;;;;;5.47;4.20;;;;;;;;;;5096938;28;20491;-73
2023/04/21 15:26:18;;;;;;;8.37;4.93;;;;;;;;;;5102763;28;20494;-72
2023/04/21 15:28:49;;;;;;;8.53;4.70;;;;;;;;;;5095295;28;20528;-70
2023/04/21 15:31:30;;;;;;;5.93;4.47;;;;;;;;;;5090943;28;20452;-71
2023/04/21 15:33:59;;;;;;;8.07;4.67;;;;;;;;;;5092785;28;20452;-70
2023/04/21 15:36:28;;;;;;;7.50;4.90;;;;;;;;;;5087800;28;20893;-71
2023/04/21 15:38:58;;;;;;;7.23;5.40;;;;;;;;;;5106413;28;20713;-71
2023/04/21 15:44:20;;;;;;;6.87;5.40;;;;;;;;;;5090778;28;20839;-72
2023/04/21 15:46:51;;;;;;;5.80;5.20;;;;;;;;;;5093891;28;20458;-71
2023/04/21 15:49:29;;;;;;;6.50;5.13;;;;;;;;;;5093211;28;20525;-70
2023/04/21 15:52:13;;;;;;;6.53;4.77;;;;;;;;;;5091515;28;20452;-72
2023/04/21 15:54:51;;;;;;;7.43;5.60;;;;;;;;;;5093305;28;20455;-71
2023/04/21 15:57:23;;;;;;;6.27;5.00;;;;;;;;;;5093155;28;20588;-71
2023/04/21 16:02:46;;;;;;;9.50;5.00;;;;;;;;;;5092762;28;20900;-72
2023/04/21 16:05:14;;;;;;;8.73;5.20;;;;;;;;;;5093371;28;20436;-72
2023/04/21 16:07:51;;;;;;;6.33;4.67;;;;;;;;;;5094711;28;20489;-72
2023/04/21 16:10:19;;;;;;;6.77;5.63;;;;;;;;;;5094108;28;20596;-71
2023/04/21 16:12:50;;;;;;;13.57;5.87;;;;;;;;;;5095166;28;20447;-71